Shady Point, Oklahoma
Current Conditions -  °F | °C
As of 7:55 AM on Thursday 25 Dec 2014 (Local Time) from KRKR Reporting Station
Clear Clear  
Wind Chill: 33°   Ceiling: Unl
Heat Index: 33°   Visibility: 10mi
Dew Point: 28°   Wind: 3mph
Humidity: 81%   Direction: 220°SW
Pressure: 30.02"   Gusts: NA
Location:  35.13°N, 94.66°W
Report Text: KRKR 251355Z AUTO 22003KT 10SM CLR 01/M02 A3002 RMK AO2 T00061023
Loading
Personal Weather Stations






























Interactive Weather Map New forecast layout! Learn more

10-Day Weather Forecast

Advertisements
Track Severe Weather on mobile